<?xml version="1.0" encoding="utf-8"?>
<gpx xmlns:xsi="http://www.w3.org/2001/XMLSchema-instance" xmlns:xsd="http://www.w3.org/2001/XMLSchema" version="1.1" creator="Shapelink.com" xmlns="http://www.topografix.com/GPX/1/1" xmlns:gpxtpx="http://www.garmin.com/xmlschemas/TrackPointExtension/v1">
  <metadata>
    <name>Löpning 5.07 km, 2019-01-22</name>
    <desc></desc>
    <author><name>Marian Moron</name></author> 
    <time>2019-01-22T22:10:18Z</time>
  </metadata>
  <trk>
    <name>Löpning 5.07 km, 2019-01-22</name>
    <trkseg>
      <trkpt lat="51.230388717744" lon="4.458910039091">
        <ele>9.8</ele>
        <time>2019-01-22T22:10:55Z</time>
      </trkpt>
      <trkpt lat="51.230489887277" lon="4.459204746695">
        <ele>8</ele>
        <time>2019-01-22T22:11:05Z</time>
      </trkpt>
      <trkpt lat="51.230527857284" lon="4.459489731295">
        <ele>8</ele>
        <time>2019-01-22T22:11:12Z</time>
      </trkpt>
      <trkpt lat="51.230572951906" lon="4.459775637904">
        <ele>7.6</ele>
        <time>2019-01-22T22:11:20Z</time>
      </trkpt>
      <trkpt lat="51.230639588011" lon="4.459956603125">
        <ele>7.6</ele>
        <time>2019-01-22T22:11:27Z</time>
      </trkpt>
      <trkpt lat="51.230690885239" lon="4.460039583935">
        <ele>7</ele>
        <time>2019-01-22T22:11:31Z</time>
      </trkpt>
      <trkpt lat="51.230770178013" lon="4.46031660573">
        <ele>5.6</ele>
        <time>2019-01-22T22:11:39Z</time>
      </trkpt>
      <trkpt lat="51.230763891588" lon="4.460622125985">
        <ele>2.6</ele>
        <time>2019-01-22T22:11:47Z</time>
      </trkpt>
      <trkpt lat="51.230780739207" lon="4.460944996773">
        <ele>0</ele>
        <time>2019-01-22T22:11:54Z</time>
      </trkpt>
      <trkpt lat="51.230863049465" lon="4.461217995256">
        <ele>0</ele>
        <time>2019-01-22T22:12:03Z</time>
      </trkpt>
      <trkpt lat="51.230965979197" lon="4.461481019278">
        <ele>0</ele>
        <time>2019-01-22T22:12:11Z</time>
      </trkpt>
      <trkpt lat="51.231076033544" lon="4.461619572085">
        <ele>0</ele>
        <time>2019-01-22T22:12:17Z</time>
      </trkpt>
      <trkpt lat="51.231265380665" lon="4.461601467181">
        <ele>0</ele>
        <time>2019-01-22T22:12:25Z</time>
      </trkpt>
      <trkpt lat="51.231466881541" lon="4.461565341192">
        <ele>0</ele>
        <time>2019-01-22T22:12:32Z</time>
      </trkpt>
      <trkpt lat="51.231610547307" lon="4.461713197908">
        <ele>0</ele>
        <time>2019-01-22T22:12:39Z</time>
      </trkpt>
      <trkpt lat="51.231618174836" lon="4.462029279357">
        <ele>0</ele>
        <time>2019-01-22T22:12:47Z</time>
      </trkpt>
      <trkpt lat="51.231572074386" lon="4.46234083458">
        <ele>0</ele>
        <time>2019-01-22T22:12:55Z</time>
      </trkpt>
      <trkpt lat="51.231554388577" lon="4.462655742563">
        <ele>0</ele>
        <time>2019-01-22T22:13:03Z</time>
      </trkpt>
      <trkpt lat="51.231591185118" lon="4.46298372631">
        <ele>0</ele>
        <time>2019-01-22T22:13:10Z</time>
      </trkpt>
      <trkpt lat="51.231521782986" lon="4.463252701481">
        <ele>0</ele>
        <time>2019-01-22T22:13:17Z</time>
      </trkpt>
      <trkpt lat="51.231492194879" lon="4.463314056989">
        <ele>0</ele>
        <time>2019-01-22T22:13:19Z</time>
      </trkpt>
      <trkpt lat="51.231417931245" lon="4.463578925029">
        <ele>0</ele>
        <time>2019-01-22T22:13:26Z</time>
      </trkpt>
      <trkpt lat="51.231328580191" lon="4.463828202735">
        <ele>0</ele>
        <time>2019-01-22T22:13:34Z</time>
      </trkpt>
      <trkpt lat="51.231305362328" lon="4.4641496486">
        <ele>0</ele>
        <time>2019-01-22T22:13:42Z</time>
      </trkpt>
      <trkpt lat="51.23131609116" lon="4.464458270158">
        <ele>0</ele>
        <time>2019-01-22T22:13:50Z</time>
      </trkpt>
      <trkpt lat="51.231323802508" lon="4.464485259876">
        <ele>0</ele>
        <time>2019-01-22T22:13:51Z</time>
      </trkpt>
      <trkpt lat="51.231393959011" lon="4.46476404187">
        <ele>0</ele>
        <time>2019-01-22T22:13:59Z</time>
      </trkpt>
      <trkpt lat="51.231385325654" lon="4.465053468877">
        <ele>0</ele>
        <time>2019-01-22T22:14:06Z</time>
      </trkpt>
      <trkpt lat="51.231327490544" lon="4.465328227559">
        <ele>0</ele>
        <time>2019-01-22T22:14:13Z</time>
      </trkpt>
      <trkpt lat="51.231258758964" lon="4.465638944592">
        <ele>0</ele>
        <time>2019-01-22T22:14:21Z</time>
      </trkpt>
      <trkpt lat="51.231190027384" lon="4.465950248358">
        <ele>0</ele>
        <time>2019-01-22T22:14:28Z</time>
      </trkpt>
      <trkpt lat="51.231138897794" lon="4.466247805808">
        <ele>0</ele>
        <time>2019-01-22T22:14:35Z</time>
      </trkpt>
      <trkpt lat="51.231086846195" lon="4.466531197847">
        <ele>0</ele>
        <time>2019-01-22T22:14:42Z</time>
      </trkpt>
      <trkpt lat="51.23103110656" lon="4.466818110284">
        <ele>0</ele>
        <time>2019-01-22T22:14:49Z</time>
      </trkpt>
      <trkpt lat="51.231013839846" lon="4.467114410449">
        <ele>0</ele>
        <time>2019-01-22T22:14:56Z</time>
      </trkpt>
      <trkpt lat="51.230956256193" lon="4.46733644698">
        <ele>0</ele>
        <time>2019-01-22T22:15:02Z</time>
      </trkpt>
      <trkpt lat="51.230781996492" lon="4.46736243087">
        <ele>0</ele>
        <time>2019-01-22T22:15:09Z</time>
      </trkpt>
      <trkpt lat="51.230603797298" lon="4.467331836935">
        <ele>0</ele>
        <time>2019-01-22T22:15:16Z</time>
      </trkpt>
      <trkpt lat="51.230416545652" lon="4.467377602109">
        <ele>0</ele>
        <time>2019-01-22T22:15:24Z</time>
      </trkpt>
      <trkpt lat="51.230225857427" lon="4.46741523684">
        <ele>0</ele>
        <time>2019-01-22T22:15:32Z</time>
      </trkpt>
      <trkpt lat="51.230050843355" lon="4.467507856835">
        <ele>0</ele>
        <time>2019-01-22T22:15:39Z</time>
      </trkpt>
      <trkpt lat="51.229854036343" lon="4.467544653376">
        <ele>0</ele>
        <time>2019-01-22T22:15:46Z</time>
      </trkpt>
      <trkpt lat="51.229658654254" lon="4.467645906728">
        <ele>0</ele>
        <time>2019-01-22T22:15:53Z</time>
      </trkpt>
      <trkpt lat="51.229465954373" lon="4.467666610021">
        <ele>0</ele>
        <time>2019-01-22T22:16:00Z</time>
      </trkpt>
      <trkpt lat="51.229272500121" lon="4.467577342786">
        <ele>0</ele>
        <time>2019-01-22T22:16:07Z</time>
      </trkpt>
      <trkpt lat="51.229035543808" lon="4.467507186283">
        <ele>0</ele>
        <time>2019-01-22T22:16:16Z</time>
      </trkpt>
      <trkpt lat="51.228838569158" lon="4.467466953163">
        <ele>5</ele>
        <time>2019-01-22T22:16:23Z</time>
      </trkpt>
      <trkpt lat="51.228653915901" lon="4.467388666217">
        <ele>8.2</ele>
        <time>2019-01-22T22:16:30Z</time>
      </trkpt>
      <trkpt lat="51.228476135802" lon="4.467297219688">
        <ele>12.4</ele>
        <time>2019-01-22T22:16:37Z</time>
      </trkpt>
      <trkpt lat="51.228297349875" lon="4.467177358518">
        <ele>18.4</ele>
        <time>2019-01-22T22:16:44Z</time>
      </trkpt>
      <trkpt lat="51.228206238622" lon="4.467104519807">
        <ele>20.6</ele>
        <time>2019-01-22T22:16:49Z</time>
      </trkpt>
      <trkpt lat="51.228074642792" lon="4.467146764583">
        <ele>20.6</ele>
        <time>2019-01-22T22:16:56Z</time>
      </trkpt>
      <trkpt lat="51.227890073354" lon="4.467029585621">
        <ele>18</ele>
        <time>2019-01-22T22:17:03Z</time>
      </trkpt>
      <trkpt lat="51.227817569919" lon="4.466993124356">
        <ele>17.2</ele>
        <time>2019-01-22T22:17:07Z</time>
      </trkpt>
      <trkpt lat="51.227752191099" lon="4.467120864512">
        <ele>17</ele>
        <time>2019-01-22T22:17:11Z</time>
      </trkpt>
      <trkpt lat="51.227826538552" lon="4.467377350652">
        <ele>10.4</ele>
        <time>2019-01-22T22:17:18Z</time>
      </trkpt>
      <trkpt lat="51.227901388919" lon="4.467639368846">
        <ele>12.2</ele>
        <time>2019-01-22T22:17:26Z</time>
      </trkpt>
      <trkpt lat="51.227935754709" lon="4.467948241861">
        <ele>12.6</ele>
        <time>2019-01-22T22:17:35Z</time>
      </trkpt>
      <trkpt lat="51.228042204839" lon="4.46818218069">
        <ele>11</ele>
        <time>2019-01-22T22:17:41Z</time>
      </trkpt>
      <trkpt lat="51.228092496239" lon="4.46850236927">
        <ele>22.6</ele>
        <time>2019-01-22T22:17:48Z</time>
      </trkpt>
      <trkpt lat="51.228192324668" lon="4.468783665834">
        <ele>32</ele>
        <time>2019-01-22T22:17:55Z</time>
      </trkpt>
      <trkpt lat="51.228267342673" lon="4.469067979882">
        <ele>38.4</ele>
        <time>2019-01-22T22:18:02Z</time>
      </trkpt>
      <trkpt lat="51.228395418105" lon="4.469282807979">
        <ele>32.8</ele>
        <time>2019-01-22T22:18:09Z</time>
      </trkpt>
      <trkpt lat="51.228517877664" lon="4.469508616365">
        <ele>25.4</ele>
        <time>2019-01-22T22:18:16Z</time>
      </trkpt>
      <trkpt lat="51.228644611992" lon="4.469758229347">
        <ele>20</ele>
        <time>2019-01-22T22:18:23Z</time>
      </trkpt>
      <trkpt lat="51.228737315806" lon="4.470021001912">
        <ele>22.2</ele>
        <time>2019-01-22T22:18:31Z</time>
      </trkpt>
      <trkpt lat="51.228889782567" lon="4.470166595515">
        <ele>20.2</ele>
        <time>2019-01-22T22:18:40Z</time>
      </trkpt>
      <trkpt lat="51.229089439425" lon="4.470131391535">
        <ele>5.2</ele>
        <time>2019-01-22T22:18:48Z</time>
      </trkpt>
      <trkpt lat="51.229289934473" lon="4.470135247209">
        <ele>0</ele>
        <time>2019-01-22T22:18:56Z</time>
      </trkpt>
      <trkpt lat="51.229466708744" lon="4.470065677439">
        <ele>0</ele>
        <time>2019-01-22T22:19:03Z</time>
      </trkpt>
      <trkpt lat="51.229646165223" lon="4.469998873696">
        <ele>0</ele>
        <time>2019-01-22T22:19:10Z</time>
      </trkpt>
      <trkpt lat="51.229816066336" lon="4.469898123258">
        <ele>0</ele>
        <time>2019-01-22T22:19:17Z</time>
      </trkpt>
      <trkpt lat="51.229990661313" lon="4.469787649816">
        <ele>0</ele>
        <time>2019-01-22T22:19:25Z</time>
      </trkpt>
      <trkpt lat="51.230172716181" lon="4.469682205514">
        <ele>0</ele>
        <time>2019-01-22T22:19:33Z</time>
      </trkpt>
      <trkpt lat="51.230360638379" lon="4.469551280236">
        <ele>0</ele>
        <time>2019-01-22T22:19:41Z</time>
      </trkpt>
      <trkpt lat="51.230542525609" lon="4.469430999971">
        <ele>0</ele>
        <time>2019-01-22T22:19:49Z</time>
      </trkpt>
      <trkpt lat="51.230717958776" lon="4.469262691419">
        <ele>0</ele>
        <time>2019-01-22T22:19:57Z</time>
      </trkpt>
      <trkpt lat="51.230890961192" lon="4.469128078105">
        <ele>0</ele>
        <time>2019-01-22T22:20:04Z</time>
      </trkpt>
      <trkpt lat="51.231060527029" lon="4.468985669624">
        <ele>0</ele>
        <time>2019-01-22T22:20:11Z</time>
      </trkpt>
      <trkpt lat="51.231210060125" lon="4.468787521508">
        <ele>0</ele>
        <time>2019-01-22T22:20:18Z</time>
      </trkpt>
      <trkpt lat="51.231336710634" lon="4.468570681755">
        <ele>0</ele>
        <time>2019-01-22T22:20:25Z</time>
      </trkpt>
      <trkpt lat="51.231462355315" lon="4.468350405423">
        <ele>0</ele>
        <time>2019-01-22T22:20:32Z</time>
      </trkpt>
      <trkpt lat="51.23158682653" lon="4.468115376947">
        <ele>0</ele>
        <time>2019-01-22T22:20:40Z</time>
      </trkpt>
      <trkpt lat="51.231706939157" lon="4.467885293792">
        <ele>0</ele>
        <time>2019-01-22T22:20:48Z</time>
      </trkpt>
      <trkpt lat="51.231822441739" lon="4.467659904501">
        <ele>0</ele>
        <time>2019-01-22T22:20:55Z</time>
      </trkpt>
      <trkpt lat="51.231967532428" lon="4.467468964819">
        <ele>2.2</ele>
        <time>2019-01-22T22:21:03Z</time>
      </trkpt>
      <trkpt lat="51.232129219279" lon="4.467587568704">
        <ele>5</ele>
        <time>2019-01-22T22:21:10Z</time>
      </trkpt>
      <trkpt lat="51.23226576043" lon="4.467822932456">
        <ele>2.4</ele>
        <time>2019-01-22T22:21:17Z</time>
      </trkpt>
      <trkpt lat="51.232413114232" lon="4.468032479956">
        <ele>4.8</ele>
        <time>2019-01-22T22:21:25Z</time>
      </trkpt>
      <trkpt lat="51.2325700234" lon="4.468235908669">
        <ele>6.4</ele>
        <time>2019-01-22T22:21:33Z</time>
      </trkpt>
      <trkpt lat="51.232722406342" lon="4.468430033473">
        <ele>8.4</ele>
        <time>2019-01-22T22:21:40Z</time>
      </trkpt>
      <trkpt lat="51.232771021362" lon="4.468743265076">
        <ele>8.4</ele>
        <time>2019-01-22T22:21:48Z</time>
      </trkpt>
      <trkpt lat="51.232860456235" lon="4.46899354861">
        <ele>6.8</ele>
        <time>2019-01-22T22:21:55Z</time>
      </trkpt>
      <trkpt lat="51.23303438066" lon="4.469297392485">
        <ele>0</ele>
        <time>2019-01-22T22:22:07Z</time>
      </trkpt>
      <trkpt lat="51.233137394211" lon="4.469574246642">
        <ele>0</ele>
        <time>2019-01-22T22:22:15Z</time>
      </trkpt>
      <trkpt lat="51.233248873481" lon="4.469830481325">
        <ele>4.6</ele>
        <time>2019-01-22T22:22:22Z</time>
      </trkpt>
      <trkpt lat="51.233302769098" lon="4.470113621907">
        <ele>9.8</ele>
        <time>2019-01-22T22:22:29Z</time>
      </trkpt>
      <trkpt lat="51.233406117925" lon="4.470348985659">
        <ele>10</ele>
        <time>2019-01-22T22:22:36Z</time>
      </trkpt>
      <trkpt lat="51.233543664904" lon="4.470586277248">
        <ele>8.8</ele>
        <time>2019-01-22T22:22:44Z</time>
      </trkpt>
      <trkpt lat="51.233666208282" lon="4.470803284639">
        <ele>9.2</ele>
        <time>2019-01-22T22:22:51Z</time>
      </trkpt>
      <trkpt lat="51.23378791347" lon="4.471066811575">
        <ele>8.6</ele>
        <time>2019-01-22T22:22:59Z</time>
      </trkpt>
      <trkpt lat="51.233905930622" lon="4.471316759833">
        <ele>8.2</ele>
        <time>2019-01-22T22:23:07Z</time>
      </trkpt>
      <trkpt lat="51.234030569475" lon="4.471570815222">
        <ele>6.6</ele>
        <time>2019-01-22T22:23:15Z</time>
      </trkpt>
      <trkpt lat="51.234156381794" lon="4.471798299988">
        <ele>7.4</ele>
        <time>2019-01-22T22:23:22Z</time>
      </trkpt>
      <trkpt lat="51.234268447797" lon="4.472066269331">
        <ele>7.8</ele>
        <time>2019-01-22T22:23:29Z</time>
      </trkpt>
      <trkpt lat="51.234381016714" lon="4.47231445739">
        <ele>8</ele>
        <time>2019-01-22T22:23:36Z</time>
      </trkpt>
      <trkpt lat="51.234494340002" lon="4.472567506951">
        <ele>5.6</ele>
        <time>2019-01-22T22:23:44Z</time>
      </trkpt>
      <trkpt lat="51.234575141518" lon="4.47283916433">
        <ele>0.6</ele>
        <time>2019-01-22T22:23:52Z</time>
      </trkpt>
      <trkpt lat="51.234662313278" lon="4.473119538885">
        <ele>2</ele>
        <time>2019-01-22T22:24:01Z</time>
      </trkpt>
      <trkpt lat="51.234778234955" lon="4.473358339216">
        <ele>1.4</ele>
        <time>2019-01-22T22:24:08Z</time>
      </trkpt>
      <trkpt lat="51.23487253133" lon="4.473507285579">
        <ele>1</ele>
        <time>2019-01-22T22:24:14Z</time>
      </trkpt>
      <trkpt lat="51.234905053102" lon="4.473498233127">
        <ele>0.6</ele>
        <time>2019-01-22T22:24:16Z</time>
      </trkpt>
      <trkpt lat="51.23495215938" lon="4.473441152388">
        <ele>3</ele>
        <time>2019-01-22T22:24:19Z</time>
      </trkpt>
      <trkpt lat="51.234926510766" lon="4.473142840567">
        <ele>5</ele>
        <time>2019-01-22T22:24:26Z</time>
      </trkpt>
      <trkpt lat="51.234857779186" lon="4.472840421615">
        <ele>1</ele>
        <time>2019-01-22T22:24:33Z</time>
      </trkpt>
      <trkpt lat="51.234791478357" lon="4.472548982952">
        <ele>0</ele>
        <time>2019-01-22T22:24:40Z</time>
      </trkpt>
      <trkpt lat="51.234730961039" lon="4.472272380252">
        <ele>0</ele>
        <time>2019-01-22T22:24:47Z</time>
      </trkpt>
      <trkpt lat="51.234658625242" lon="4.471995442276">
        <ele>0</ele>
        <time>2019-01-22T22:24:55Z</time>
      </trkpt>
      <trkpt lat="51.234580505934" lon="4.471728981675">
        <ele>0</ele>
        <time>2019-01-22T22:25:03Z</time>
      </trkpt>
      <trkpt lat="51.234522754643" lon="4.471455815554">
        <ele>0</ele>
        <time>2019-01-22T22:25:11Z</time>
      </trkpt>
      <trkpt lat="51.234473720528" lon="4.471157084638">
        <ele>0</ele>
        <time>2019-01-22T22:25:19Z</time>
      </trkpt>
      <trkpt lat="51.234444802973" lon="4.470865897432">
        <ele>0</ele>
        <time>2019-01-22T22:25:27Z</time>
      </trkpt>
      <trkpt lat="51.23442745244" lon="4.470533471278">
        <ele>2</ele>
        <time>2019-01-22T22:25:35Z</time>
      </trkpt>
      <trkpt lat="51.234397529057" lon="4.470239266588">
        <ele>5</ele>
        <time>2019-01-22T22:25:43Z</time>
      </trkpt>
      <trkpt lat="51.234345812734" lon="4.469926286442">
        <ele>2.8</ele>
        <time>2019-01-22T22:25:51Z</time>
      </trkpt>
      <trkpt lat="51.234270124177" lon="4.469625040956">
        <ele>0.6</ele>
        <time>2019-01-22T22:25:59Z</time>
      </trkpt>
      <trkpt lat="51.234215893284" lon="4.46934726479">
        <ele>0</ele>
        <time>2019-01-22T22:26:06Z</time>
      </trkpt>
      <trkpt lat="51.234165685703" lon="4.469060100896">
        <ele>0</ele>
        <time>2019-01-22T22:26:13Z</time>
      </trkpt>
      <trkpt lat="51.234109610792" lon="4.468747372207">
        <ele>0</ele>
        <time>2019-01-22T22:26:21Z</time>
      </trkpt>
      <trkpt lat="51.234067952749" lon="4.468454927716">
        <ele>0</ele>
        <time>2019-01-22T22:26:28Z</time>
      </trkpt>
      <trkpt lat="51.234024115412" lon="4.468153766049">
        <ele>0</ele>
        <time>2019-01-22T22:26:35Z</time>
      </trkpt>
      <trkpt lat="51.234027132896" lon="4.467817484221">
        <ele>2</ele>
        <time>2019-01-22T22:26:42Z</time>
      </trkpt>
      <trkpt lat="51.233975165116" lon="4.467517412201">
        <ele>6</ele>
        <time>2019-01-22T22:26:49Z</time>
      </trkpt>
      <trkpt lat="51.233926717734" lon="4.467238797845">
        <ele>2.6</ele>
        <time>2019-01-22T22:26:56Z</time>
      </trkpt>
      <trkpt lat="51.233860165448" lon="4.466970577045">
        <ele>0</ele>
        <time>2019-01-22T22:27:03Z</time>
      </trkpt>
      <trkpt lat="51.233790847135" lon="4.466676372355">
        <ele>0</ele>
        <time>2019-01-22T22:27:11Z</time>
      </trkpt>
      <trkpt lat="51.23374600397" lon="4.466390381927">
        <ele>0</ele>
        <time>2019-01-22T22:27:18Z</time>
      </trkpt>
      <trkpt lat="51.233687917403" lon="4.466082347102">
        <ele>0</ele>
        <time>2019-01-22T22:27:26Z</time>
      </trkpt>
      <trkpt lat="51.233633602691" lon="4.46578328091">
        <ele>0</ele>
        <time>2019-01-22T22:27:33Z</time>
      </trkpt>
      <trkpt lat="51.233585825861" lon="4.465471893325">
        <ele>0</ele>
        <time>2019-01-22T22:27:41Z</time>
      </trkpt>
      <trkpt lat="51.2335339419" lon="4.4651806223">
        <ele>0</ele>
        <time>2019-01-22T22:27:48Z</time>
      </trkpt>
      <trkpt lat="51.23348281231" lon="4.464761862576">
        <ele>0</ele>
        <time>2019-01-22T22:27:59Z</time>
      </trkpt>
      <trkpt lat="51.233434281109" lon="4.464442344548">
        <ele>0</ele>
        <time>2019-01-22T22:28:07Z</time>
      </trkpt>
      <trkpt lat="51.233277874855" lon="4.464310497261">
        <ele>7.4</ele>
        <time>2019-01-22T22:28:18Z</time>
      </trkpt>
      <trkpt lat="51.233148039224" lon="4.464515015621">
        <ele>6.6</ele>
        <time>2019-01-22T22:28:25Z</time>
      </trkpt>
      <trkpt lat="51.233038068696" lon="4.464760018558">
        <ele>4.8</ele>
        <time>2019-01-22T22:28:33Z</time>
      </trkpt>
      <trkpt lat="51.232936815344" lon="4.465023545494">
        <ele>2.8</ele>
        <time>2019-01-22T22:28:41Z</time>
      </trkpt>
      <trkpt lat="51.232854588905" lon="4.465281372738">
        <ele>0.8</ele>
        <time>2019-01-22T22:28:49Z</time>
      </trkpt>
      <trkpt lat="51.232761214539" lon="4.465528052055">
        <ele>0.2</ele>
        <time>2019-01-22T22:28:56Z</time>
      </trkpt>
      <trkpt lat="51.23264797507" lon="4.465800547624">
        <ele>0</ele>
        <time>2019-01-22T22:29:04Z</time>
      </trkpt>
      <trkpt lat="51.2325281139" lon="4.46605820723">
        <ele>0</ele>
        <time>2019-01-22T22:29:12Z</time>
      </trkpt>
      <trkpt lat="51.232410096748" lon="4.466305389461">
        <ele>0</ele>
        <time>2019-01-22T22:29:20Z</time>
      </trkpt>
      <trkpt lat="51.232269448466" lon="4.466520217558">
        <ele>0</ele>
        <time>2019-01-22T22:29:28Z</time>
      </trkpt>
      <trkpt lat="51.232146821269" lon="4.466775949327">
        <ele>0</ele>
        <time>2019-01-22T22:29:36Z</time>
      </trkpt>
      <trkpt lat="51.232032827429" lon="4.467013995287">
        <ele>0</ele>
        <time>2019-01-22T22:29:44Z</time>
      </trkpt>
      <trkpt lat="51.231876756451" lon="4.467163360745">
        <ele>0</ele>
        <time>2019-01-22T22:29:51Z</time>
      </trkpt>
      <trkpt lat="51.231691097366" lon="4.467215915258">
        <ele>0</ele>
        <time>2019-01-22T22:29:59Z</time>
      </trkpt>
      <trkpt lat="51.231501834064" lon="4.46716461803">
        <ele>0.4</ele>
        <time>2019-01-22T22:30:07Z</time>
      </trkpt>
      <trkpt lat="51.231314498599" lon="4.46712941405">
        <ele>0</ele>
        <time>2019-01-22T22:30:15Z</time>
      </trkpt>
      <trkpt lat="51.231178376543" lon="4.466907712795">
        <ele>2.2</ele>
        <time>2019-01-22T22:30:23Z</time>
      </trkpt>
      <trkpt lat="51.231038231175" lon="4.466688693748">
        <ele>2.6</ele>
        <time>2019-01-22T22:30:30Z</time>
      </trkpt>
      <trkpt lat="51.231035968062" lon="4.466406558994">
        <ele>0</ele>
        <time>2019-01-22T22:30:37Z</time>
      </trkpt>
      <trkpt lat="51.231131940817" lon="4.466164824998">
        <ele>0</ele>
        <time>2019-01-22T22:30:44Z</time>
      </trkpt>
      <trkpt lat="51.23121047922" lon="4.465874727439">
        <ele>0</ele>
        <time>2019-01-22T22:30:52Z</time>
      </trkpt>
      <trkpt lat="51.231251299073" lon="4.465561747293">
        <ele>0</ele>
        <time>2019-01-22T22:31:01Z</time>
      </trkpt>
      <trkpt lat="51.231285161949" lon="4.465267458784">
        <ele>0</ele>
        <time>2019-01-22T22:31:09Z</time>
      </trkpt>
      <trkpt lat="51.231306787251" lon="4.464955735923">
        <ele>0</ele>
        <time>2019-01-22T22:31:17Z</time>
      </trkpt>
      <trkpt lat="51.231305781423" lon="4.464639403017">
        <ele>0</ele>
        <time>2019-01-22T22:31:25Z</time>
      </trkpt>
      <trkpt lat="51.231287425062" lon="4.464585004486">
        <ele>0</ele>
        <time>2019-01-22T22:31:26Z</time>
      </trkpt>
      <trkpt lat="51.231251801987" lon="4.464518536019">
        <ele>0</ele>
        <time>2019-01-22T22:31:30Z</time>
      </trkpt>
      <trkpt lat="51.231246018476" lon="4.464216619981">
        <ele>0</ele>
        <time>2019-01-22T22:31:39Z</time>
      </trkpt>
      <trkpt lat="51.231281809189" lon="4.463924426947">
        <ele>0</ele>
        <time>2019-01-22T22:31:46Z</time>
      </trkpt>
      <trkpt lat="51.231408543517" lon="4.463685794254">
        <ele>0</ele>
        <time>2019-01-22T22:31:53Z</time>
      </trkpt>
      <trkpt lat="51.231498900399" lon="4.463424949526">
        <ele>0</ele>
        <time>2019-01-22T22:31:59Z</time>
      </trkpt>
      <trkpt lat="51.231601830131" lon="4.463170726499">
        <ele>0</ele>
        <time>2019-01-22T22:32:07Z</time>
      </trkpt>
      <trkpt lat="51.231579701915" lon="4.462885155166">
        <ele>3.6</ele>
        <time>2019-01-22T22:32:15Z</time>
      </trkpt>
      <trkpt lat="51.231581545933" lon="4.462587430078">
        <ele>2.6</ele>
        <time>2019-01-22T22:32:23Z</time>
      </trkpt>
      <trkpt lat="51.231642817622" lon="4.462293979759">
        <ele>2</ele>
        <time>2019-01-22T22:32:31Z</time>
      </trkpt>
      <trkpt lat="51.231672824824" lon="4.46201142591">
        <ele>3</ele>
        <time>2019-01-22T22:32:38Z</time>
      </trkpt>
      <trkpt lat="51.231596968629" lon="4.461746474051">
        <ele>4.8</ele>
        <time>2019-01-22T22:32:45Z</time>
      </trkpt>
      <trkpt lat="51.231417344512" lon="4.461667013639">
        <ele>4.2</ele>
        <time>2019-01-22T22:32:54Z</time>
      </trkpt>
      <trkpt lat="51.231380380333" lon="4.461650920391">
        <ele>4</ele>
        <time>2019-01-22T22:32:56Z</time>
      </trkpt>
      <trkpt lat="51.231309720916" lon="4.461364929963">
        <ele>2.4</ele>
        <time>2019-01-22T22:33:04Z</time>
      </trkpt>
      <trkpt lat="51.231240905517" lon="4.461082795209">
        <ele>0</ele>
        <time>2019-01-22T22:33:12Z</time>
      </trkpt>
      <trkpt lat="51.231241743707" lon="4.461001658417">
        <ele>0</ele>
        <time>2019-01-22T22:33:13Z</time>
      </trkpt>
      <trkpt lat="51.231295639324" lon="4.460694797058">
        <ele>0</ele>
        <time>2019-01-22T22:33:22Z</time>
      </trkpt>
      <trkpt lat="51.231293208573" lon="4.460622042166">
        <ele>0</ele>
        <time>2019-01-22T22:33:24Z</time>
      </trkpt>
      <trkpt lat="51.231176448706" lon="4.46038701369">
        <ele>0</ele>
        <time>2019-01-22T22:33:31Z</time>
      </trkpt>
      <trkpt lat="51.23111827832" lon="4.460114518121">
        <ele>0</ele>
        <time>2019-01-22T22:33:39Z</time>
      </trkpt>
      <trkpt lat="51.231156415965" lon="4.459791731152">
        <ele>0</ele>
        <time>2019-01-22T22:33:47Z</time>
      </trkpt>
      <trkpt lat="51.231170162281" lon="4.459709420894">
        <ele>0</ele>
        <time>2019-01-22T22:33:49Z</time>
      </trkpt>
      <trkpt lat="51.23124903596" lon="4.45959576233">
        <ele>0</ele>
        <time>2019-01-22T22:33:54Z</time>
      </trkpt>
      <trkpt lat="51.231590766023" lon="4.459595091778">
        <ele>0.2</ele>
        <time>2019-01-22T22:34:08Z</time>
      </trkpt>
      <trkpt lat="51.231663604734" lon="4.459540693247">
        <ele>2.6</ele>
        <time>2019-01-22T22:34:11Z</time>
      </trkpt>
      <trkpt lat="51.231634770998" lon="4.459246488557">
        <ele>4.2</ele>
        <time>2019-01-22T22:34:20Z</time>
      </trkpt>
      <trkpt lat="51.231546844867" lon="4.458964018527">
        <ele>0</ele>
        <time>2019-01-22T22:34:28Z</time>
      </trkpt>
      <trkpt lat="51.231481717504" lon="4.458690600949">
        <ele>0</ele>
        <time>2019-01-22T22:34:35Z</time>
      </trkpt>
      <trkpt lat="51.231375770288" lon="4.458476694861">
        <ele>1.2</ele>
        <time>2019-01-22T22:34:43Z</time>
      </trkpt>
      <trkpt lat="51.23121886112" lon="4.458344260841">
        <ele>4.4</ele>
        <time>2019-01-22T22:34:52Z</time>
      </trkpt>
      <trkpt lat="51.231196397628" lon="4.458302854255">
        <ele>5.2</ele>
        <time>2019-01-22T22:34:53Z</time>
      </trkpt>
      <trkpt lat="51.231163372942" lon="4.457999345656">
        <ele>5.2</ele>
        <time>2019-01-22T22:35:02Z</time>
      </trkpt>
      <trkpt lat="51.231121463442" lon="4.457702626396">
        <ele>3.8</ele>
        <time>2019-01-22T22:35:09Z</time>
      </trkpt>
      <trkpt lat="51.231114003551" lon="4.457399369254">
        <ele>2.4</ele>
        <time>2019-01-22T22:35:16Z</time>
      </trkpt>
      <trkpt lat="51.231143340201" lon="4.457078426303">
        <ele>0</ele>
        <time>2019-01-22T22:35:24Z</time>
      </trkpt>
      <trkpt lat="51.231212826152" lon="4.456789669848">
        <ele>0</ele>
        <time>2019-01-22T22:35:31Z</time>
      </trkpt>
      <trkpt lat="51.231235792558" lon="4.456493788778">
        <ele>0</ele>
        <time>2019-01-22T22:35:39Z</time>
      </trkpt>
      <trkpt lat="51.231203606062" lon="4.456432684727">
        <ele>0</ele>
        <time>2019-01-22T22:35:41Z</time>
      </trkpt>
      <trkpt lat="51.231136131767" lon="4.456411729977">
        <ele>0</ele>
        <time>2019-01-22T22:35:44Z</time>
      </trkpt>
      <trkpt lat="51.230954328356" lon="4.456480964471">
        <ele>2.4</ele>
        <time>2019-01-22T22:35:52Z</time>
      </trkpt>
      <trkpt lat="51.230777637904" lon="4.45657492557">
        <ele>0</ele>
        <time>2019-01-22T22:35:59Z</time>
      </trkpt>
      <trkpt lat="51.230568341861" lon="4.456502673592">
        <ele>11.2</ele>
        <time>2019-01-22T22:36:06Z</time>
      </trkpt>
      <trkpt lat="51.230378324188" lon="4.456510468759">
        <ele>16.2</ele>
        <time>2019-01-22T22:36:13Z</time>
      </trkpt>
      <trkpt lat="51.230186462497" lon="4.456601244736">
        <ele>19.4</ele>
        <time>2019-01-22T22:36:20Z</time>
      </trkpt>
      <trkpt lat="51.230000216679" lon="4.456642735141">
        <ele>21.2</ele>
        <time>2019-01-22T22:36:27Z</time>
      </trkpt>
      <trkpt lat="51.229813048852" lon="4.456715490033">
        <ele>26.4</ele>
        <time>2019-01-22T22:36:36Z</time>
      </trkpt>
      <trkpt lat="51.229637280409" lon="4.45679704592">
        <ele>29.6</ele>
        <time>2019-01-22T22:36:45Z</time>
      </trkpt>
      <trkpt lat="51.229440892492" lon="4.45687751216">
        <ele>27.8</ele>
        <time>2019-01-22T22:36:52Z</time>
      </trkpt>
      <trkpt lat="51.229238972521" lon="4.456937442745">
        <ele>22.4</ele>
        <time>2019-01-22T22:36:59Z</time>
      </trkpt>
      <trkpt lat="51.229052810522" lon="4.456988823792">
        <ele>19</ele>
        <time>2019-01-22T22:37:06Z</time>
      </trkpt>
      <trkpt lat="51.228858685718" lon="4.45702754817">
        <ele>16.6</ele>
        <time>2019-01-22T22:37:13Z</time>
      </trkpt>
      <trkpt lat="51.228659280317" lon="4.457048670558">
        <ele>17.8</ele>
        <time>2019-01-22T22:37:20Z</time>
      </trkpt>
      <trkpt lat="51.22854084407" lon="4.457238688231">
        <ele>20.8</ele>
        <time>2019-01-22T22:37:26Z</time>
      </trkpt>
      <trkpt lat="51.228538245681" lon="4.457292751486">
        <ele>20.2</ele>
        <time>2019-01-22T22:37:27Z</time>
      </trkpt>
      <trkpt lat="51.22854419683" lon="4.457588464918">
        <ele>20</ele>
        <time>2019-01-22T22:37:33Z</time>
      </trkpt>
      <trkpt lat="51.228568336702" lon="4.45790848586">
        <ele>16.6</ele>
        <time>2019-01-22T22:37:40Z</time>
      </trkpt>
      <trkpt lat="51.228605636157" lon="4.458193135184">
        <ele>12.4</ele>
        <time>2019-01-22T22:37:47Z</time>
      </trkpt>
      <trkpt lat="51.228628267287" lon="4.458231775743">
        <ele>10.4</ele>
        <time>2019-01-22T22:37:49Z</time>
      </trkpt>
      <trkpt lat="51.228825577213" lon="4.458208306423">
        <ele>7.8</ele>
        <time>2019-01-22T22:38:00Z</time>
      </trkpt>
      <trkpt lat="51.228999920733" lon="4.458133288418">
        <ele>7.2</ele>
        <time>2019-01-22T22:38:07Z</time>
      </trkpt>
      <trkpt lat="51.229179628669" lon="4.458050642884">
        <ele>5.4</ele>
        <time>2019-01-22T22:38:14Z</time>
      </trkpt>
      <trkpt lat="51.229359671881" lon="4.457985934616">
        <ele>4.8</ele>
        <time>2019-01-22T22:38:21Z</time>
      </trkpt>
      <trkpt lat="51.229542984034" lon="4.45792524966">
        <ele>3.4</ele>
        <time>2019-01-22T22:38:28Z</time>
      </trkpt>
      <trkpt lat="51.229730319499" lon="4.457855260795">
        <ele>1.8</ele>
        <time>2019-01-22T22:38:36Z</time>
      </trkpt>
      <trkpt lat="51.229909524521" lon="4.457755432366">
        <ele>3</ele>
        <time>2019-01-22T22:38:44Z</time>
      </trkpt>
      <trkpt lat="51.230110606302" lon="4.457719474015">
        <ele>3.2</ele>
        <time>2019-01-22T22:38:54Z</time>
      </trkpt>
      <trkpt lat="51.230313699739" lon="4.457697094342">
        <ele>0</ele>
        <time>2019-01-22T22:39:02Z</time>
      </trkpt>
      <trkpt lat="51.230536155365" lon="4.457634062454">
        <ele>0</ele>
        <time>2019-01-22T22:39:09Z</time>
      </trkpt>
      <trkpt lat="51.230730950721" lon="4.457552506567">
        <ele>0</ele>
        <time>2019-01-22T22:39:18Z</time>
      </trkpt>
      <trkpt lat="51.230765484149" lon="4.457567677806">
        <ele>0</ele>
        <time>2019-01-22T22:39:20Z</time>
      </trkpt>
      <trkpt lat="51.230827929304" lon="4.457626602563">
        <ele>0</ele>
        <time>2019-01-22T22:39:22Z</time>
      </trkpt>
      <trkpt lat="51.230651322671" lon="4.457712768495">
        <ele>0</ele>
        <time>2019-01-22T22:39:31Z</time>
      </trkpt>
      <trkpt lat="51.230447558682" lon="4.457760712963">
        <ele>0</ele>
        <time>2019-01-22T22:39:39Z</time>
      </trkpt>
      <trkpt lat="51.230245973987" lon="4.457760796782">
        <ele>0</ele>
        <time>2019-01-22T22:39:46Z</time>
      </trkpt>
      <trkpt lat="51.230037348496" lon="4.457756102918">
        <ele>0</ele>
        <time>2019-01-22T22:39:53Z</time>
      </trkpt>
      <trkpt lat="51.229774073017" lon="4.457917789769">
        <ele>0</ele>
        <time>2019-01-22T22:40:04Z</time>
      </trkpt>
      <trkpt lat="51.229589335941" lon="4.457995992896">
        <ele>0</ele>
        <time>2019-01-22T22:40:12Z</time>
      </trkpt>
      <trkpt lat="51.22939915063" lon="4.458074363661">
        <ele>2</ele>
        <time>2019-01-22T22:40:19Z</time>
      </trkpt>
      <trkpt lat="51.2293429919" lon="4.458089115805">
        <ele>3.4</ele>
        <time>2019-01-22T22:40:21Z</time>
      </trkpt>
    </trkseg>
  </trk>
</gpx>